createdAt,value
2019-04-05T00:00:15.118Z,48.10
2019-04-05T00:02:45.359Z,48.90
2019-04-05T00:05:16.515Z,48.17
2019-04-05T00:07:48.445Z,47.33
2019-04-05T00:10:19.585Z,48.30
2019-04-05T00:12:49.512Z,47.73
2019-04-05T00:15:19.232Z,47.07
2019-04-05T00:17:48.884Z,46.73
2019-04-05T00:20:18.579Z,46.70
2019-04-05T00:22:48.229Z,48.47
2019-04-05T00:25:17.881Z,44.83
2019-04-05T00:27:48.944Z,48.13
2019-04-05T00:30:19.002Z,46.57
2019-04-05T00:32:48.871Z,48.67
2019-04-05T00:35:19.838Z,46.83
2019-04-05T00:37:49.688Z,48.40
2019-04-05T00:40:19.798Z,50.67
2019-04-05T00:42:49.460Z,48.50
2019-04-05T00:45:27.902Z,46.67
2019-04-05T00:47:51.015Z,47.60
2019-04-05T00:50:21.103Z,47.17
2019-04-05T00:52:50.783Z,47.73
2019-04-05T00:55:20.437Z,51.20
2019-04-05T00:57:53.817Z,46.33
2019-04-05T01:00:23.652Z,48.73
2019-04-05T01:02:53.320Z,46.13
2019-04-05T01:05:23.064Z,45.90
2019-04-05T01:07:52.719Z,48.00
2019-04-05T01:10:22.669Z,49.33
2019-04-05T01:12:52.601Z,48.13
2019-04-05T01:15:22.260Z,48.27
2019-04-05T01:17:52.026Z,47.87
2019-04-05T01:20:22.986Z,45.50
2019-04-05T01:22:52.662Z,47.63
2019-04-05T01:25:23.122Z,47.83
2019-04-05T01:27:53.491Z,48.13
2019-04-05T01:30:23.150Z,48.57
2019-04-05T01:32:52.823Z,48.40
2019-04-05T01:35:41.872Z,49.33
2019-04-05T01:38:12.125Z,46.83
2019-04-05T01:40:45.911Z,46.83
2019-04-05T01:43:16.330Z,45.50
2019-04-05T01:45:53.593Z,43.97
2019-04-05T01:48:19.145Z,44.93
2019-04-05T01:50:48.821Z,46.03
2019-04-05T01:53:19.476Z,46.20
2019-04-05T01:55:49.304Z,46.47
2019-04-05T01:58:18.979Z,46.40
2019-04-05T02:00:48.634Z,49.30
2019-04-05T02:03:18.368Z,45.77
2019-04-05T02:05:48.049Z,43.97
2019-04-05T02:08:17.896Z,43.17
2019-04-05T02:10:48.460Z,46.17
2019-04-05T02:13:18.152Z,45.97
2019-04-05T02:15:47.810Z,44.87
2019-04-05T02:18:17.471Z,44.23
2019-04-05T02:20:47.453Z,43.77
2019-04-05T02:23:17.294Z,44.43
2019-04-05T02:25:47.248Z,45.13
2019-04-05T02:28:17.429Z,44.13
2019-04-05T02:30:47.090Z,44.53
2019-04-05T02:33:16.741Z,44.00
2019-04-05T02:35:46.433Z,44.43
2019-04-05T02:38:16.101Z,42.57
2019-04-05T02:40:47.845Z,44.53
2019-04-05T02:43:21.059Z,43.40
2019-04-05T02:45:53.717Z,47.00
2019-04-05T02:48:24.077Z,43.60
2019-04-05T02:50:58.159Z,44.17
2019-04-05T02:53:31.214Z,44.77
2019-04-05T02:56:03.709Z,46.70
2019-04-05T02:58:34.999Z,44.47
2019-04-05T03:01:04.769Z,44.50
2019-04-05T03:03:35.037Z,45.50
2019-04-05T03:06:06.868Z,45.00
2019-04-05T03:08:37.624Z,45.93
2019-04-05T03:11:14.181Z,44.57
2019-04-05T03:13:51.152Z,44.17
2019-04-05T03:16:39.327Z,42.97
2019-04-05T03:19:06.787Z,43.60
2019-04-05T03:21:40.916Z,42.83
2019-04-05T03:24:15.146Z,45.43
2019-04-05T03:26:49.213Z,46.83
2019-04-05T03:29:19.085Z,44.97
2019-04-05T03:31:49.147Z,44.50
2019-04-05T03:34:19.524Z,42.10
2019-04-05T03:36:51.783Z,44.53
2019-04-05T03:39:23.522Z,48.73
2019-04-05T03:41:54.893Z,44.53
2019-04-05T03:44:24.847Z,45.17
2019-04-05T03:46:57.909Z,42.83
2019-04-05T03:49:28.144Z,42.73
2019-04-05T03:51:58.106Z,44.27
2019-04-05T03:54:27.887Z,45.80
2019-04-05T03:56:57.691Z,46.60
2019-04-05T03:59:27.660Z,42.17
2019-04-05T04:01:57.684Z,41.80
2019-04-05T04:04:27.703Z,43.60
2019-04-05T04:06:57.867Z,46.07
2019-04-05T04:09:27.737Z,44.10
2019-04-05T04:11:57.789Z,44.87
2019-04-05T04:14:28.208Z,45.07
2019-04-05T04:17:11.433Z,45.53
2019-04-05T04:19:30.560Z,43.63
2019-04-05T04:22:19.664Z,43.80
2019-04-05T04:24:49.965Z,44.23
2019-04-05T04:27:19.962Z,44.37
2019-04-05T04:29:50.915Z,48.37
2019-04-05T04:32:20.894Z,48.37
2019-04-05T04:34:51.568Z,46.23
2019-04-05T04:37:22.152Z,43.50
2019-04-05T04:39:52.380Z,45.00
2019-04-05T04:42:23.628Z,43.47
2019-04-05T04:44:56.156Z,47.90
2019-04-05T04:47:27.478Z,49.23
2019-04-05T04:49:59.739Z,48.93
2019-04-05T04:52:33.421Z,46.37
2019-04-05T04:55:03.467Z,48.53
2019-04-05T04:57:33.422Z,47.33
2019-04-05T05:00:04.326Z,47.20
2019-04-05T05:02:35.588Z,46.00
2019-04-05T05:05:08.050Z,44.80
2019-04-05T05:07:38.931Z,53.03
2019-04-05T05:10:10.415Z,45.03
2019-04-05T05:12:40.891Z,45.73
2019-04-05T05:15:13.455Z,45.13
2019-04-05T05:17:43.621Z,44.03
2019-04-05T05:20:13.268Z,45.87
2019-04-05T05:22:43.455Z,47.23
2019-04-05T05:25:13.720Z,46.70
2019-04-05T05:27:44.091Z,46.80
2019-04-05T05:30:15.231Z,46.90
2019-04-05T05:32:45.097Z,46.40
2019-04-05T05:35:14.979Z,47.33
2019-04-05T05:37:46.903Z,47.10
2019-04-05T05:40:17.047Z,45.37
2019-04-05T05:42:46.696Z,46.30
2019-04-05T05:45:17.175Z,45.43
2019-04-05T05:47:52.177Z,45.30
2019-04-05T05:50:18.922Z,47.43
2019-04-05T05:52:50.312Z,48.03
2019-04-05T05:55:19.971Z,44.47
2019-04-05T05:57:54.221Z,43.83
2019-04-05T06:00:24.305Z,51.67
2019-04-05T06:02:53.969Z,46.73
2019-04-05T06:05:23.639Z,46.83
2019-04-05T06:07:53.605Z,44.53
2019-04-05T06:10:23.337Z,46.13
2019-04-05T06:12:53.010Z,47.70
2019-04-05T06:15:42.015Z,46.33
2019-04-05T06:18:12.756Z,47.77
2019-04-05T06:20:43.511Z,47.77
2019-04-05T06:23:13.210Z,48.47
2019-04-05T06:25:42.892Z,45.67
2019-04-05T06:28:12.638Z,50.20
2019-04-05T06:30:42.411Z,50.70
2019-04-05T06:33:12.079Z,47.90
2019-04-05T06:35:42.747Z,45.30
2019-04-05T06:38:12.425Z,47.87
2019-04-05T06:40:43.469Z,51.70
2019-04-05T06:43:13.135Z,48.30
2019-04-05T06:45:42.839Z,49.30
2019-04-05T06:48:19.457Z,51.20
2019-04-05T06:50:47.315Z,52.30
2019-04-05T06:53:16.904Z,51.90
2019-04-05T06:55:46.576Z,52.03
2019-04-05T06:58:28.867Z,48.70
2019-04-05T07:00:56.796Z,49.37
2019-04-05T07:03:25.938Z,49.73
2019-04-05T07:05:55.717Z,49.40
2019-04-05T07:08:26.963Z,50.40
2019-04-05T07:10:56.781Z,50.23
2019-04-05T07:13:27.646Z,48.87
2019-04-05T07:15:57.407Z,47.83
2019-04-05T07:18:34.283Z,50.90
2019-04-05T07:20:58.471Z,59.97
2019-04-05T07:23:28.127Z,47.80
2019-04-05T07:25:57.787Z,49.50
2019-04-05T07:28:27.472Z,49.03
2019-04-05T07:30:57.150Z,49.77
2019-04-05T07:33:28.450Z,48.60
2019-04-05T07:35:58.215Z,47.67
2019-04-05T07:38:27.859Z,49.90
2019-04-05T07:40:57.629Z,49.97
2019-04-05T07:43:27.318Z,49.17
2019-04-05T07:45:56.999Z,50.03
2019-04-05T07:48:26.664Z,50.43
2019-04-05T07:50:57.968Z,48.77
2019-04-05T07:53:27.640Z,48.97
2019-04-05T07:55:57.296Z,49.77
2019-04-05T07:58:30.570Z,51.30
2019-04-05T08:01:01.696Z,49.37
2019-04-05T08:03:31.354Z,49.77
2019-04-05T08:06:02.766Z,51.30
2019-04-05T08:08:51.798Z,51.77
2019-04-05T08:11:22.998Z,51.67
2019-04-05T08:13:55.943Z,52.23
2019-04-05T08:16:31.604Z,52.13
2019-04-05T08:19:01.324Z,48.83
2019-04-05T08:21:32.470Z,49.30
2019-04-05T08:24:02.146Z,52.63
2019-04-05T08:26:32.519Z,53.63
2019-04-05T08:29:02.172Z,49.30
2019-04-05T08:31:31.926Z,49.73
2019-04-05T08:34:01.617Z,50.00
2019-04-05T08:36:32.710Z,51.03
2019-04-05T08:39:02.817Z,51.57
2019-04-05T08:41:32.512Z,51.63
2019-04-05T08:44:02.175Z,50.50
2019-04-05T08:46:31.832Z,51.27
2019-04-05T08:49:10.535Z,53.00
2019-04-05T08:51:32.897Z,50.00
2019-04-05T08:54:02.727Z,51.10
2019-04-05T08:56:33.786Z,52.83
2019-04-05T08:59:04.410Z,53.73
2019-04-05T09:01:34.095Z,51.90
2019-04-05T09:04:04.358Z,50.17
2019-04-05T09:06:34.026Z,54.33
2019-04-05T09:09:05.663Z,52.00
2019-04-05T09:11:35.798Z,50.80
2019-04-05T09:14:05.464Z,52.47
2019-04-05T09:16:35.151Z,52.37
2019-04-05T09:19:05.095Z,53.10
2019-04-05T09:21:40.256Z,52.80
2019-04-05T09:24:07.517Z,52.30
2019-04-05T09:26:37.191Z,51.13
2019-04-05T09:29:09.610Z,53.03
2019-04-05T09:31:39.615Z,52.10
2019-04-05T09:34:09.387Z,51.50
2019-04-05T09:36:39.049Z,51.23
2019-04-05T09:39:15.492Z,50.43
2019-04-05T09:41:43.381Z,52.43
2019-04-05T09:44:13.075Z,51.17
2019-04-05T09:46:47.222Z,51.67
2019-04-05T09:49:14.224Z,54.03
2019-04-05T09:51:43.876Z,52.03
2019-04-05T09:54:13.632Z,54.73
2019-04-05T09:56:43.295Z,54.07
2019-04-05T09:59:14.415Z,51.97
2019-04-05T10:01:44.094Z,53.47
2019-04-05T10:04:13.846Z,52.37
2019-04-05T10:06:43.500Z,53.17
2019-04-05T10:09:13.763Z,53.63
2019-04-05T10:11:43.528Z,56.77
2019-04-05T10:14:13.286Z,53.40
2019-04-05T10:16:43.136Z,52.20
2019-04-05T10:19:12.815Z,53.07
2019-04-05T10:21:42.499Z,53.30
2019-04-05T10:24:12.197Z,53.20
2019-04-05T10:26:41.939Z,55.07
2019-04-05T10:29:11.602Z,53.60
2019-04-05T10:31:42.978Z,54.70
2019-04-05T10:34:12.626Z,52.83
2019-04-05T10:36:42.369Z,57.10
2019-04-05T10:39:12.045Z,55.07
2019-04-05T10:41:41.735Z,54.90
2019-04-05T10:44:13.043Z,53.80
2019-04-05T10:46:42.799Z,54.37
2019-04-05T10:49:15.029Z,53.67
2019-04-05T10:51:43.860Z,55.03
2019-04-05T10:54:13.543Z,54.37
2019-04-05T10:56:43.193Z,54.10
2019-04-05T10:59:13.083Z,54.70
2019-04-05T11:01:42.852Z,54.80
2019-04-05T11:04:12.525Z,55.23
2019-04-05T11:06:42.204Z,54.67
2019-04-05T11:09:11.894Z,55.53
2019-04-05T11:11:41.575Z,56.67
2019-04-05T11:14:14.073Z,54.57
2019-04-05T11:16:42.667Z,55.77
2019-04-05T11:19:12.324Z,54.20
2019-04-05T11:21:43.476Z,55.03
2019-04-05T11:24:13.198Z,55.63
2019-04-05T11:26:44.736Z,55.90
2019-04-05T11:29:14.857Z,53.43
2019-04-05T11:31:56.342Z,54.50
2019-04-05T11:34:16.506Z,55.27
2019-04-05T11:36:47.794Z,55.10
2019-04-05T11:39:18.660Z,53.37
2019-04-05T11:41:52.048Z,58.23
2019-04-05T11:44:23.835Z,53.70
2019-04-05T11:46:55.896Z,55.67
2019-04-05T11:49:28.354Z,54.47
2019-04-05T11:51:58.254Z,53.73
2019-04-05T11:54:27.937Z,57.50
2019-04-05T11:56:59.255Z,55.97
2019-04-05T11:59:29.015Z,55.83
2019-04-05T12:02:04.456Z,54.10
2019-04-05T12:04:34.149Z,58.20
2019-04-05T12:07:06.043Z,57.03
2019-04-05T12:09:35.721Z,59.17
2019-04-05T12:12:05.606Z,57.63
2019-04-05T12:14:36.728Z,57.10
2019-04-05T12:17:09.543Z,56.50
2019-04-05T12:19:38.252Z,57.27
2019-04-05T12:22:09.440Z,60.17
2019-04-05T12:24:39.268Z,57.47
2019-04-05T12:27:08.992Z,58.57
2019-04-05T12:29:38.642Z,56.07
2019-04-05T12:32:08.315Z,56.33
2019-04-05T12:34:38.080Z,60.97
2019-04-05T12:37:07.741Z,57.37
2019-04-05T12:39:37.430Z,58.40
2019-04-05T12:42:11.947Z,59.40
2019-04-05T12:44:40.157Z,58.57
2019-04-05T12:47:10.579Z,55.63
2019-04-05T12:49:40.273Z,58.23
2019-04-05T12:52:21.804Z,58.83
2019-04-05T12:54:41.592Z,56.80
2019-04-05T12:57:11.265Z,57.30
2019-04-05T13:02:33.897Z,58.00
2019-04-05T13:05:00.265Z,56.33
2019-04-05T13:07:29.950Z,60.03
2019-04-05T13:09:59.675Z,60.27
2019-04-05T13:12:29.303Z,61.47
2019-04-05T13:15:11.750Z,56.67
2019-04-05T13:17:31.843Z,59.97
2019-04-05T13:20:01.527Z,56.10
2019-04-05T13:22:32.934Z,56.53
2019-04-05T13:25:02.630Z,66.20
2019-04-05T13:27:32.298Z,58.57
2019-04-05T13:30:01.965Z,56.90
2019-04-05T13:32:31.666Z,59.13
2019-04-05T13:35:01.339Z,58.77
2019-04-05T13:37:31.545Z,56.57
2019-04-05T13:40:01.368Z,56.40
2019-04-05T13:42:31.893Z,55.70
2019-04-05T13:45:01.940Z,55.60
2019-04-05T13:47:32.979Z,56.20
2019-04-05T13:50:02.851Z,56.27
2019-04-05T13:52:32.523Z,58.83
2019-04-05T13:55:02.294Z,54.63
2019-04-05T13:57:32.183Z,56.63
2019-04-05T14:00:01.860Z,54.70
2019-04-05T14:02:32.591Z,56.27
2019-04-05T14:05:02.266Z,55.47
2019-04-05T14:07:34.106Z,55.03
2019-04-05T14:10:04.445Z,53.30
2019-04-05T14:12:34.143Z,57.10
2019-04-05T14:15:05.082Z,57.83
2019-04-05T14:17:34.764Z,56.70
2019-04-05T14:20:08.932Z,55.13
2019-04-05T14:22:37.857Z,55.47
2019-04-05T14:25:08.806Z,54.57
2019-04-05T14:27:38.467Z,54.30
2019-04-05T14:30:09.240Z,55.30
2019-04-05T14:32:38.921Z,56.60
2019-04-05T14:35:09.485Z,54.67
2019-04-05T14:37:39.148Z,54.27
2019-04-05T14:40:09.836Z,56.27
2019-04-05T14:42:39.502Z,54.40
2019-04-05T14:45:10.169Z,57.03
2019-04-05T14:47:41.493Z,56.03
2019-04-05T14:50:11.862Z,54.60
2019-04-05T14:52:41.550Z,57.13
2019-04-05T14:55:11.334Z,55.50
2019-04-05T14:57:41.001Z,54.93
2019-04-05T15:00:14.738Z,55.07
2019-04-05T15:02:44.072Z,55.83
2019-04-05T15:05:19.269Z,56.47
2019-04-05T15:07:51.114Z,58.97
2019-04-05T15:10:25.025Z,53.67
2019-04-05T15:12:53.108Z,54.63
2019-04-05T15:15:24.375Z,54.23
2019-04-05T15:17:54.047Z,56.17
2019-04-05T15:20:25.411Z,55.67
2019-04-05T15:22:55.095Z,56.23
2019-04-05T15:25:26.514Z,54.47
2019-04-05T15:27:56.562Z,55.13
2019-04-05T15:30:26.707Z,57.83
2019-04-05T15:32:58.578Z,55.70
2019-04-05T15:35:28.807Z,55.50
2019-04-05T15:38:01.353Z,57.67
2019-04-05T15:40:30.909Z,56.57
2019-04-05T15:43:01.367Z,55.13
2019-04-05T15:45:31.071Z,56.00
2019-04-05T15:48:00.805Z,56.30
2019-04-05T15:50:30.458Z,57.70
2019-04-05T15:53:02.325Z,59.47
2019-04-05T15:55:33.571Z,61.23
2019-04-05T15:58:03.917Z,58.57
2019-04-05T16:00:45.110Z,60.90
2019-04-05T16:03:15.920Z,60.07
2019-04-05T16:05:46.678Z,60.20
2019-04-05T16:08:20.621Z,60.33
2019-04-05T16:10:51.481Z,61.23
2019-04-05T16:13:21.137Z,59.47
2019-04-05T16:15:50.824Z,59.67
2019-04-05T16:18:20.501Z,60.77
2019-04-05T16:20:50.232Z,59.80
2019-04-05T16:23:19.910Z,60.00
2019-04-05T16:25:49.888Z,58.93
2019-04-05T16:28:19.563Z,58.70
2019-04-05T16:30:49.319Z,59.40
2019-04-05T16:33:19.033Z,58.07
2019-04-05T16:35:48.709Z,57.67
2019-04-05T16:38:18.389Z,58.50
2019-04-05T16:40:48.048Z,57.10
2019-04-05T16:43:17.734Z,56.37
2019-04-05T16:45:47.411Z,61.10
2019-04-05T16:48:17.140Z,56.23
2019-04-05T16:50:46.810Z,56.50
2019-04-05T16:53:16.495Z,56.63
2019-04-05T16:55:46.166Z,56.60
2019-04-05T16:58:15.827Z,56.80
2019-04-05T17:00:45.514Z,56.33
2019-04-05T17:03:15.187Z,60.13
2019-04-05T17:05:49.803Z,56.60
2019-04-05T17:08:19.490Z,55.93
2019-04-05T17:10:49.159Z,57.63
2019-04-05T17:13:18.843Z,56.87
2019-04-05T17:15:48.541Z,56.87
2019-04-05T17:18:18.719Z,56.30
2019-04-05T17:20:48.381Z,59.47
2019-04-05T17:23:18.061Z,56.63
2019-04-05T17:26:06.998Z,56.37
2019-04-05T17:28:36.709Z,58.40
2019-04-05T17:31:06.375Z,57.30
2019-04-05T17:33:36.052Z,56.07
2019-04-05T17:36:06.896Z,57.33
2019-04-05T17:38:36.557Z,58.83
2019-04-05T17:41:06.536Z,60.27
2019-04-05T17:43:36.558Z,56.30
2019-04-05T17:46:06.211Z,55.27
2019-04-05T17:48:35.876Z,54.63
2019-04-05T17:51:08.744Z,58.10
2019-04-05T17:53:39.043Z,56.30
2019-04-05T17:56:10.689Z,56.27
2019-04-05T17:58:41.468Z,56.37
2019-04-05T18:01:11.426Z,57.33
2019-04-05T18:03:41.105Z,57.30
2019-04-05T18:06:10.790Z,59.37
2019-04-05T18:08:40.464Z,55.83
2019-04-05T18:11:10.200Z,55.03
2019-04-05T18:13:40.079Z,56.83
2019-04-05T18:16:11.340Z,55.60
2019-04-05T18:18:45.068Z,55.37
2019-04-05T18:21:16.259Z,54.40
2019-04-05T18:23:46.705Z,58.37
2019-04-05T18:26:18.873Z,54.23
2019-04-05T18:28:50.010Z,57.10
2019-04-05T18:31:20.095Z,55.03
2019-04-05T18:33:50.663Z,56.40
2019-04-05T18:36:24.144Z,55.07
2019-04-05T18:38:54.395Z,54.80
2019-04-05T18:41:24.104Z,54.43
2019-04-05T18:43:53.780Z,53.63
2019-04-05T18:46:23.450Z,52.27
2019-04-05T18:48:53.213Z,54.20
2019-04-05T18:51:22.916Z,53.90
2019-04-05T18:53:53.552Z,56.07
2019-04-05T18:56:23.247Z,56.50
2019-04-05T18:58:52.890Z,53.93
2019-04-05T19:01:22.868Z,53.43
2019-04-05T19:03:52.558Z,53.70
2019-04-05T19:06:22.286Z,54.40
2019-04-05T19:08:51.908Z,53.87
2019-04-05T19:11:21.621Z,53.23
2019-04-05T19:14:01.028Z,52.27
2019-04-05T19:16:24.128Z,52.13
2019-04-05T19:18:53.838Z,53.50
2019-04-05T19:21:23.519Z,55.77
2019-04-05T19:23:54.985Z,55.83
2019-04-05T19:26:24.676Z,55.10
2019-04-05T19:28:54.336Z,53.17
2019-04-05T19:49:03.899Z,53.30
2019-04-05T19:51:33.558Z,55.30
2019-04-05T19:54:05.547Z,52.80
2019-04-05T19:56:35.295Z,52.53
2019-04-05T19:59:05.342Z,53.90
2019-04-05T20:01:35.089Z,52.13
2019-04-05T20:04:04.838Z,53.97
2019-04-05T20:06:34.527Z,52.83
2019-04-05T20:09:08.094Z,52.17
2019-04-05T20:11:37.781Z,51.77
2019-04-05T20:14:07.435Z,53.50
2019-04-05T20:16:37.111Z,52.27
2019-04-05T20:19:06.804Z,51.80
2019-04-05T20:21:36.466Z,54.33
2019-04-05T20:24:14.018Z,51.93
2019-04-05T20:26:40.401Z,51.37
2019-04-05T20:29:10.149Z,53.40
2019-04-05T20:31:39.981Z,53.60
2019-04-05T20:34:09.667Z,51.30
2019-04-05T20:36:39.435Z,52.67
2019-04-05T20:39:09.524Z,51.87
2019-04-05T20:41:39.234Z,53.13
2019-04-05T20:44:08.937Z,51.13
2019-04-05T20:46:38.679Z,51.27
2019-04-05T20:49:08.397Z,52.57
2019-04-05T20:51:38.080Z,54.07
2019-04-05T20:54:07.756Z,51.93
2019-04-05T20:56:38.160Z,52.63
2019-04-05T20:59:08.058Z,53.97
2019-04-05T21:01:38.265Z,51.87
2019-04-05T21:04:09.785Z,53.80
2019-04-05T21:06:40.301Z,52.67
2019-04-05T21:09:10.804Z,53.07
2019-04-05T21:11:41.201Z,53.03
2019-04-05T21:14:12.156Z,52.00
2019-04-05T21:16:42.785Z,52.63
2019-04-05T21:19:13.723Z,53.13
2019-04-05T21:21:44.698Z,51.83
2019-04-05T21:24:15.342Z,52.33
2019-04-05T21:26:46.103Z,53.03
2019-04-05T21:29:16.759Z,54.40
2019-04-05T21:31:48.747Z,52.17
2019-04-05T21:34:18.424Z,52.97
2019-04-05T21:36:48.153Z,54.60
2019-04-05T21:39:17.828Z,53.00
2019-04-05T21:41:47.516Z,53.47
2019-04-05T21:44:17.164Z,54.93
2019-04-05T21:46:46.818Z,52.50
2019-04-05T21:49:16.511Z,51.50
2019-04-05T21:51:48.068Z,52.27
2019-04-05T21:54:17.742Z,52.70
2019-04-05T21:56:47.430Z,54.40
2019-04-05T21:59:21.088Z,56.53
2019-04-05T22:01:52.337Z,54.67
2019-04-05T22:04:22.816Z,52.57
2019-04-05T22:06:54.242Z,53.17
2019-04-05T22:09:24.081Z,53.70
2019-04-05T22:11:53.781Z,53.27
2019-04-05T22:14:23.519Z,57.40
2019-04-05T22:16:53.469Z,58.83
2019-04-05T22:19:23.982Z,57.43
2019-04-05T22:21:54.257Z,57.70
2019-04-05T22:24:25.675Z,56.73
2019-04-05T22:26:55.390Z,59.93
2019-04-05T22:29:27.904Z,61.10
2019-04-05T22:31:57.675Z,59.77
2019-04-05T22:34:27.446Z,64.30
2019-04-05T22:36:58.293Z,60.30
2019-04-05T22:39:28.054Z,63.63
2019-04-05T22:41:57.775Z,64.27
2019-04-05T22:44:37.825Z,63.10
2019-04-05T22:46:59.003Z,64.70
2019-04-05T22:49:28.814Z,67.43
2019-04-05T22:51:58.498Z,66.63
2019-04-05T22:54:28.206Z,70.77
2019-04-05T22:56:57.964Z,69.40
2019-04-05T22:59:27.820Z,67.30
2019-04-05T23:01:57.519Z,71.80
2019-04-05T23:04:27.652Z,70.13
2019-04-05T23:06:57.349Z,69.97
2019-04-05T23:09:27.286Z,72.03
2019-04-05T23:11:57.020Z,74.10
2019-04-05T23:14:26.699Z,74.07
2019-04-05T23:16:58.035Z,71.13
2019-04-05T23:19:29.352Z,66.83
2019-04-05T23:22:00.918Z,71.97
2019-04-05T23:24:30.438Z,73.83
2019-04-05T23:27:01.828Z,74.23
2019-04-05T23:29:31.659Z,72.17
2019-04-05T23:32:01.338Z,73.93
2019-04-05T23:34:31.133Z,73.03
2019-04-05T23:37:00.884Z,76.93
2019-04-05T23:39:30.656Z,75.13
2019-04-05T23:42:00.414Z,75.43
2019-04-05T23:44:30.946Z,72.60
2019-04-05T23:47:02.088Z,76.30
2019-04-05T23:49:31.801Z,76.37
2019-04-05T23:52:01.512Z,74.07
2019-04-05T23:54:31.190Z,74.87
2019-04-05T23:57:00.899Z,75.30
2019-04-05T23:59:31.921Z,72.93
